PWSweather.com
Personal Weather Stations
Station Observations
CHKWX
Mesa Panagitsa, ChalkisGR 341 00

Mesa PanagitsaChalkisGR 341 00

Lat: 38.470143, Lon: 23.598348

Elevation: 30

Station Type: Oregon Scientific WMR100

Latest ConditionsUpdated 10:00:01 PM GMT+02:02 Friday, Aug 18, 2017
Currently Today's Max Today's Min Today's Average
Temperature 83.8°F28.8°C 87.8°F31.0°C 79.5°F26.4°C 83.8°F28.8°C
Dew Point 60.2°F15.7°C 65.9°F18.8°C 54.5°F12.5°C 61.7°F16.5°C
Winds 4.6 mph NE7.4 kmh NE 20.7 mph N33.3 kmh N - 6.0 mph 9.7 kmh
Wind Gusts 8.1 mph13.0 kmh 32.2 mph51.8 kmh - -
Humidity 45% 62% 35% 48%
Pressure 29.96 in1014.6 mb 29.98 in1015.2 mb 29.90 in1012.5 mb -
Hour Temp Dew Point Humidity Winds Wind Gusts Pressure Precip Precip Rate Daily Precip Total
10:00 PM 83.8°F28.8°C 60.2°F15.7°C 45% 4.6 mph NE7.4 kmh NE 8.1 mph13.0 kmh 29.96 in1014.6 mb - 0.00 in0.0 mm 0.00 in0.0 mm
09:50 PM 83.8°F28.8°C 57.6°F14.2°C 41% 9.2 mph N14.8 kmh N 10.4 mph16.7 kmh 29.96 in1014.6 mb - 0.00 in0.0 mm 0.00 in0.0 mm
09:40 PM 83.7°F28.7°C 58.8°F14.9°C 43% 8.1 mph N13.0 kmh N 10.4 mph16.7 kmh 29.96 in1014.6 mb - 0.00 in0.0 mm 0.00 in0.0 mm
09:30 PM 83.8°F28.8°C 58.3°F14.6°C 42% 6.9 mph N11.1 kmh N 10.4 mph16.7 kmh 29.96 in1014.6 mb - 0.00 in0.0 mm 0.00 in0.0 mm
09:20 PM 84.0°F28.9°C 60.4°F15.8°C 45% 9.2 mph N14.8 kmh N 12.7 mph20.4 kmh 29.96 in1014.6 mb - 0.00 in0.0 mm 0.00 in0.0 mm
09:10 PM 84.0°F28.9°C 59.7°F15.4°C 44% 6.9 mph N11.1 kmh N 12.7 mph20.4 kmh 29.96 in1014.6 mb - 0.00 in0.0 mm 0.00 in0.0 mm
09:00 PM 83.8°F28.8°C 60.8°F16.0°C 46% 3.5 mph N5.6 kmh N 12.7 mph20.4 kmh 29.96 in1014.6 mb - 0.00 in0.0 mm 0.00 in0.0 mm
08:50 PM 83.5°F28.6°C 61.1°F16.2°C 47% 3.5 mph NE5.6 kmh NE 8.1 mph13.0 kmh 29.96 in1014.6 mb - 0.00 in0.0 mm 0.00 in0.0 mm
08:40 PM 83.3°F28.5°C 60.4°F15.8°C 46% 10.4 mph NNW16.7 kmh NNW 15.0 mph24.1 kmh 29.96 in1014.6 mb - 0.00 in0.0 mm 0.00 in0.0 mm
08:30 PM 83.3°F28.5°C 64.4°F18.0°C 53% 6.9 mph N11.1 kmh N 10.4 mph16.7 kmh 29.96 in1014.6 mb - 0.00 in0.0 mm 0.00 in0.0 mm
08:20 PM 83.7°F28.7°C 63.1°F17.3°C 50% 6.9 mph N11.1 kmh N 10.4 mph16.7 kmh 29.96 in1014.6 mb - 0.00 in0.0 mm 0.00 in0.0 mm
08:10 PM 83.8°F28.8°C 63.2°F17.3°C 50% 6.9 mph NNW11.1 kmh NNW 12.7 mph20.4 kmh 29.96 in1014.6 mb - 0.00 in0.0 mm 0.00 in0.0 mm
08:00 PM 84.0°F28.9°C 61.0°F16.1°C 46% 11.5 mph N18.5 kmh N 15.0 mph24.1 kmh 29.96 in1014.6 mb - 0.00 in0.0 mm 0.00 in0.0 mm
07:50 PM 84.2°F29.0°C 59.9°F15.5°C 44% 11.5 mph N18.5 kmh N 15.0 mph24.1 kmh 29.96 in1014.6 mb - 0.00 in0.0 mm 0.00 in0.0 mm
07:40 PM 84.4°F29.1°C 61.4°F16.3°C 46% 11.5 mph N18.5 kmh N 15.0 mph24.1 kmh 29.96 in1014.6 mb - 0.00 in0.0 mm 0.00 in0.0 mm
07:30 PM 84.4°F29.1°C 60.1°F15.6°C 44% 10.4 mph N16.7 kmh N 15.0 mph24.1 kmh 29.95 in1014.2 mb - 0.00 in0.0 mm 0.00 in0.0 mm
07:20 PM 84.4°F29.1°C 59.5°F15.3°C 43% 13.8 mph NNW22.2 kmh NNW 20.7 mph33.3 kmh 29.95 in1014.2 mb - 0.00 in0.0 mm 0.00 in0.0 mm
07:10 PM 84.4°F29.1°C 60.7°F15.9°C 45% 13.8 mph N22.2 kmh N 20.7 mph33.3 kmh 29.95 in1014.2 mb - 0.00 in0.0 mm 0.00 in0.0 mm
07:00 PM 84.7°F29.3°C 62.8°F17.1°C 48% 6.9 mph W11.1 kmh W 12.7 mph20.4 kmh 29.95 in1014.2 mb - 0.00 in0.0 mm 0.00 in0.0 mm
06:50 PM 84.9°F29.4°C 63.0°F17.2°C 48% 6.9 mph NNW11.1 kmh NNW 12.7 mph20.4 kmh 29.95 in1014.2 mb - 0.00 in0.0 mm 0.00 in0.0 mm
06:40 PM 85.4°F29.7°C 61.6°F16.4°C 45% 10.4 mph N16.7 kmh N 17.3 mph27.8 kmh 29.94 in1013.9 mb - 0.00 in0.0 mm 0.00 in0.0 mm
06:30 PM 85.6°F29.8°C 62.4°F16.9°C 46% 10.4 mph N16.7 kmh N 12.7 mph20.4 kmh 29.94 in1013.9 mb - 0.00 in0.0 mm 0.00 in0.0 mm
06:20 PM 85.8°F29.9°C 60.7°F15.9°C 43% 4.6 mph NNE7.4 kmh NNE 8.1 mph13.0 kmh 29.94 in1013.9 mb - 0.00 in0.0 mm 0.00 in0.0 mm
06:10 PM 85.8°F29.9°C 62.0°F16.7°C 45% 3.5 mph N5.6 kmh N 8.1 mph13.0 kmh 29.94 in1013.9 mb - 0.00 in0.0 mm 0.00 in0.0 mm
06:00 PM 86.0°F30.0°C 60.9°F16.1°C 43% 12.7 mph NW20.4 kmh NW 20.7 mph33.3 kmh 29.94 in1013.9 mb - 0.00 in0.0 mm 0.00 in0.0 mm
05:50 PM 86.0°F30.0°C 61.6°F16.4°C 44% 9.2 mph N14.8 kmh N 12.7 mph20.4 kmh 29.94 in1013.9 mb - 0.00 in0.0 mm 0.00 in0.0 mm
05:40 PM 86.0°F30.0°C 64.0°F17.8°C 48% 10.4 mph WNW16.7 kmh WNW 17.3 mph27.8 kmh 29.94 in1013.9 mb - 0.00 in0.0 mm 0.00 in0.0 mm
05:30 PM 86.2°F30.1°C 62.4°F16.9°C 45% 6.9 mph NW11.1 kmh NW 15.0 mph24.1 kmh 29.94 in1013.9 mb - 0.00 in0.0 mm 0.00 in0.0 mm
05:20 PM 86.2°F30.1°C 63.0°F17.2°C 46% 10.4 mph N16.7 kmh N 15.0 mph24.1 kmh 29.95 in1014.2 mb - 0.00 in0.0 mm 0.00 in0.0 mm
05:10 PM 86.5°F30.3°C 62.6°F17.0°C 45% 19.6 mph NNW31.5 kmh NNW 23.0 mph37.0 kmh 29.94 in1013.9 mb - 0.00 in0.0 mm 0.00 in0.0 mm
05:00 PM 86.6°F30.3°C 63.4°F17.4°C 46% 8.1 mph NW13.0 kmh NW 15.0 mph24.1 kmh 29.95 in1014.2 mb - 0.00 in0.0 mm 0.00 in0.0 mm
04:50 PM 86.9°F30.5°C 63.0°F17.2°C 45% 5.8 mph N9.3 kmh N 10.4 mph16.7 kmh 29.95 in1014.2 mb - 0.00 in0.0 mm 0.00 in0.0 mm
04:40 PM 87.3°F30.7°C 62.1°F16.7°C 43% 13.8 mph N22.2 kmh N 17.3 mph27.8 kmh 29.95 in1014.2 mb - 0.00 in0.0 mm 0.00 in0.0 mm
04:30 PM 87.4°F30.8°C 62.8°F17.1°C 44% 4.6 mph NNE7.4 kmh NNE 10.4 mph16.7 kmh 29.95 in1014.2 mb - 0.00 in0.0 mm 0.00 in0.0 mm
04:20 PM 87.6°F30.9°C 61.7°F16.5°C 42% 4.6 mph E7.4 kmh E 10.4 mph16.7 kmh 29.95 in1014.2 mb - 0.00 in0.0 mm 0.00 in0.0 mm
04:10 PM 87.4°F30.8°C 63.5°F17.5°C 45% 5.8 mph N9.3 kmh N 10.4 mph16.7 kmh 29.96 in1014.6 mb - 0.00 in0.0 mm 0.00 in0.0 mm
04:00 PM 86.9°F30.5°C 62.4°F16.9°C 44% 3.5 mph E5.6 kmh E 8.1 mph13.0 kmh 29.95 in1014.2 mb - 0.00 in0.0 mm 0.00 in0.0 mm
03:50 PM 86.9°F30.5°C 61.0°F16.1°C 42% 4.6 mph N7.4 kmh N 10.4 mph16.7 kmh 29.95 in1014.2 mb - 0.00 in0.0 mm 0.00 in0.0 mm
03:40 PM 86.9°F30.5°C 63.0°F17.2°C 45% 6.9 mph NW11.1 kmh NW 17.3 mph27.8 kmh 29.95 in1014.2 mb - 0.00 in0.0 mm 0.00 in0.0 mm
03:30 PM 87.4°F30.8°C 62.8°F17.1°C 44% 9.2 mph NW14.8 kmh NW 15.0 mph24.1 kmh 29.95 in1014.2 mb - 0.00 in0.0 mm 0.00 in0.0 mm
03:20 PM 87.3°F30.7°C 62.1°F16.7°C 43% 5.8 mph SW9.3 kmh SW 15.0 mph24.1 kmh 29.95 in1014.2 mb - 0.00 in0.0 mm 0.00 in0.0 mm
03:10 PM 87.3°F30.7°C 62.7°F17.1°C 44% 6.9 mph NW11.1 kmh NW 10.4 mph16.7 kmh 29.95 in1014.2 mb - 0.00 in0.0 mm 0.00 in0.0 mm
03:00 PM 87.3°F30.7°C 60.7°F15.9°C 41% 4.6 mph NE7.4 kmh NE 15.0 mph24.1 kmh 29.95 in1014.2 mb - 0.00 in0.0 mm 0.00 in0.0 mm
02:50 PM 87.1°F30.6°C 62.5°F16.9°C 44% 6.9 mph NNW11.1 kmh NNW 12.7 mph20.4 kmh 29.95 in1014.2 mb - 0.00 in0.0 mm 0.00 in0.0 mm
02:40 PM 86.7°F30.4°C 60.9°F16.1°C 42% 10.4 mph NNW16.7 kmh NNW 20.7 mph33.3 kmh 29.95 in1014.2 mb - 0.00 in0.0 mm 0.00 in0.0 mm
02:30 PM 86.5°F30.3°C 61.3°F16.3°C 43% 6.9 mph N11.1 kmh N 17.3 mph27.8 kmh 29.95 in1014.2 mb - 0.00 in0.0 mm 0.00 in0.0 mm
02:20 PM 86.5°F30.3°C 62.6°F17.0°C 45% 8.1 mph NNE13.0 kmh NNE 17.3 mph27.8 kmh 29.96 in1014.6 mb - 0.00 in0.0 mm 0.00 in0.0 mm
02:10 PM 86.5°F30.3°C 63.9°F17.7°C 47% 8.1 mph NNW13.0 kmh NNW 15.0 mph24.1 kmh 29.96 in1014.6 mb - 0.00 in0.0 mm 0.00 in0.0 mm
02:00 PM 86.9°F30.5°C 63.0°F17.2°C 45% 3.5 mph NW5.6 kmh NW 8.1 mph13.0 kmh 29.96 in1014.6 mb - 0.00 in0.0 mm 0.00 in0.0 mm
01:50 PM 87.4°F30.8°C 62.8°F17.1°C 44% 8.1 mph NNW13.0 kmh NNW 10.4 mph16.7 kmh 29.96 in1014.6 mb - 0.00 in0.0 mm 0.00 in0.0 mm
01:40 PM 87.8°F31.0°C 63.8°F17.7°C 45% 8.1 mph NNE13.0 kmh NNE 17.3 mph27.8 kmh 29.96 in1014.6 mb - 0.00 in0.0 mm 0.00 in0.0 mm
01:30 PM 87.5°F30.8°C 62.3°F16.8°C 43% 6.9 mph NNE11.1 kmh NNE 12.7 mph20.4 kmh 29.97 in1014.9 mb - 0.00 in0.0 mm 0.00 in0.0 mm
01:20 PM 87.3°F30.7°C 60.7°F15.9°C 41% 1.2 mph NNE1.9 kmh NNE 8.1 mph13.0 kmh 29.97 in1014.9 mb - 0.00 in0.0 mm 0.00 in0.0 mm
01:10 PM 87.1°F30.6°C 56.9°F13.8°C 36% 11.5 mph N18.5 kmh N 15.0 mph24.1 kmh 29.97 in1014.9 mb - 0.00 in0.0 mm 0.00 in0.0 mm
01:00 PM 87.1°F30.6°C 58.4°F14.7°C 38% 11.5 mph N18.5 kmh N 17.3 mph27.8 kmh 29.97 in1014.9 mb - 0.00 in0.0 mm 0.00 in0.0 mm
12:50 PM 87.1°F30.6°C 61.9°F16.6°C 43% 5.8 mph N9.3 kmh N 10.4 mph16.7 kmh 29.97 in1014.9 mb - 0.00 in0.0 mm 0.00 in0.0 mm
12:40 PM 86.5°F30.3°C 62.6°F17.0°C 45% 4.6 mph N7.4 kmh N 10.4 mph16.7 kmh 29.98 in1015.2 mb - 0.00 in0.0 mm 0.00 in0.0 mm
12:30 PM 86.0°F30.0°C 64.0°F17.8°C 48% 3.5 mph NE5.6 kmh NE 10.4 mph16.7 kmh 29.98 in1015.2 mb - 0.00 in0.0 mm 0.00 in0.0 mm
12:20 PM 85.6°F29.8°C 63.7°F17.6°C 48% 1.2 mph NNE1.9 kmh NNE 2.3 mph3.7 kmh 29.98 in1015.2 mb - 0.00 in0.0 mm 0.00 in0.0 mm
12:10 PM 85.5°F29.7°C 63.6°F17.6°C 48% 4.6 mph N7.4 kmh N 15.0 mph24.1 kmh 29.97 in1014.9 mb - 0.00 in0.0 mm 0.00 in0.0 mm
12:00 PM 85.3°F29.6°C 63.4°F17.4°C 48% 5.8 mph NE9.3 kmh NE 12.7 mph20.4 kmh 29.97 in1014.9 mb - 0.00 in0.0 mm 0.00 in0.0 mm
11:50 AM 85.1°F29.5°C 62.6°F17.0°C 47% 3.5 mph SE5.6 kmh SE 10.4 mph16.7 kmh 29.97 in1014.9 mb - 0.00 in0.0 mm 0.00 in0.0 mm
11:40 AM 85.1°F29.5°C 62.6°F17.0°C 47% 9.2 mph NNW14.8 kmh NNW 15.0 mph24.1 kmh 29.98 in1015.2 mb - 0.00 in0.0 mm 0.00 in0.0 mm
11:30 AM 85.3°F29.6°C 61.6°F16.4°C 45% 15.0 mph N24.1 kmh N 27.6 mph44.4 kmh 29.98 in1015.2 mb - 0.00 in0.0 mm 0.00 in0.0 mm
11:20 AM 85.3°F29.6°C 63.4°F17.4°C 48% 9.2 mph NW14.8 kmh NW 15.0 mph24.1 kmh 29.97 in1014.9 mb - 0.00 in0.0 mm 0.00 in0.0 mm
11:10 AM 85.5°F29.7°C 63.6°F17.6°C 48% 9.2 mph NNW14.8 kmh NNW 15.0 mph24.1 kmh 29.98 in1015.2 mb - 0.00 in0.0 mm 0.00 in0.0 mm
11:00 AM 85.6°F29.8°C 63.1°F17.3°C 47% 6.9 mph N11.1 kmh N 15.0 mph24.1 kmh 29.98 in1015.2 mb - 0.00 in0.0 mm 0.00 in0.0 mm
10:50 AM 85.8°F29.9°C 63.2°F17.3°C 47% 4.6 mph NE7.4 kmh NE 10.4 mph16.7 kmh 29.98 in1015.2 mb - 0.00 in0.0 mm 0.00 in0.0 mm
10:40 AM 85.8°F29.9°C 57.3°F14.1°C 38% 3.5 mph N5.6 kmh N 15.0 mph24.1 kmh 29.98 in1015.2 mb - 0.00 in0.0 mm 0.00 in0.0 mm
10:30 AM 85.6°F29.8°C 57.8°F14.3°C 39% 5.8 mph N9.3 kmh N 15.0 mph24.1 kmh 29.98 in1015.2 mb - 0.00 in0.0 mm 0.00 in0.0 mm
10:20 AM 85.5°F29.7°C 57.7°F14.3°C 39% 10.4 mph N16.7 kmh N 15.0 mph24.1 kmh 29.98 in1015.2 mb - 0.00 in0.0 mm 0.00 in0.0 mm
10:10 AM 85.3°F29.6°C 54.5°F12.5°C 35% 10.4 mph NNE16.7 kmh NNE 20.7 mph33.3 kmh 29.98 in1015.2 mb - 0.00 in0.0 mm 0.00 in0.0 mm
10:00 AM 84.9°F29.4°C 55.7°F13.2°C 37% 13.8 mph NNE22.2 kmh NNE 17.3 mph27.8 kmh 29.98 in1015.2 mb - 0.00 in0.0 mm 0.00 in0.0 mm
09:50 AM 84.7°F29.3°C 57.7°F14.3°C 40% 11.5 mph NNW18.5 kmh NNW 17.3 mph27.8 kmh 29.98 in1015.2 mb - 0.00 in0.0 mm 0.00 in0.0 mm
09:40 AM 84.9°F29.4°C 56.5°F13.6°C 38% 20.7 mph N33.3 kmh N 32.2 mph51.8 kmh 29.98 in1015.2 mb - 0.00 in0.0 mm 0.00 in0.0 mm
09:30 AM 84.7°F29.3°C 57.7°F14.3°C 40% 12.7 mph NE20.4 kmh NE 20.7 mph33.3 kmh 29.98 in1015.2 mb - 0.00 in0.0 mm 0.00 in0.0 mm
09:20 AM 84.6°F29.2°C 56.2°F13.4°C 38% 10.4 mph N16.7 kmh N 15.0 mph24.1 kmh 29.98 in1015.2 mb - 0.00 in0.0 mm 0.00 in0.0 mm
09:10 AM 84.2°F29.0°C 59.9°F15.5°C 44% 2.3 mph NNE3.7 kmh NNE 8.1 mph13.0 kmh 29.98 in1015.2 mb - 0.00 in0.0 mm 0.00 in0.0 mm
09:00 AM 84.2°F29.0°C 57.9°F14.4°C 41% 13.8 mph N22.2 kmh N 17.3 mph27.8 kmh 29.98 in1015.2 mb - 0.00 in0.0 mm 0.00 in0.0 mm
08:50 AM 84.0°F28.9°C 58.4°F14.7°C 42% 6.9 mph N11.1 kmh N 17.3 mph27.8 kmh 29.98 in1015.2 mb - 0.00 in0.0 mm 0.00 in0.0 mm
08:40 AM 83.7°F28.7°C 61.3°F16.3°C 47% 2.3 mph NNE3.7 kmh NNE 8.1 mph13.0 kmh 29.97 in1014.9 mb - 0.00 in0.0 mm 0.00 in0.0 mm
08:30 AM 83.3°F28.5°C 61.6°F16.4°C 48% 2.3 mph NW3.7 kmh NW 4.6 mph7.4 kmh 29.97 in1014.9 mb - 0.00 in0.0 mm 0.00 in0.0 mm
08:20 AM 82.9°F28.3°C 61.8°F16.6°C 49% 2.3 mph N3.7 kmh N 4.6 mph7.4 kmh 29.97 in1014.9 mb - 0.00 in0.0 mm 0.00 in0.0 mm
08:10 AM 82.6°F28.1°C 60.9°F16.1°C 48% 3.5 mph NNW5.6 kmh NNW 8.1 mph13.0 kmh 29.97 in1014.9 mb - 0.00 in0.0 mm 0.00 in0.0 mm
08:00 AM 82.4°F28.0°C 62.5°F16.9°C 51% 6.9 mph N11.1 kmh N 12.7 mph20.4 kmh 29.96 in1014.6 mb - 0.00 in0.0 mm 0.00 in0.0 mm
07:50 AM 82.0°F27.8°C 61.5°F16.4°C 50% 2.3 mph NNE3.7 kmh NNE 8.1 mph13.0 kmh 29.96 in1014.6 mb - 0.00 in0.0 mm 0.00 in0.0 mm
07:40 AM 82.0°F27.8°C 62.6°F17.0°C 52% 4.6 mph N7.4 kmh N 8.1 mph13.0 kmh 29.96 in1014.6 mb - 0.00 in0.0 mm 0.00 in0.0 mm
07:30 AM 81.7°F27.6°C 62.4°F16.9°C 52% 4.6 mph NW7.4 kmh NW 8.1 mph13.0 kmh 29.95 in1014.2 mb - 0.00 in0.0 mm 0.00 in0.0 mm
07:20 AM 81.5°F27.5°C 63.3°F17.4°C 54% 2.3 mph WNW3.7 kmh WNW 8.1 mph13.0 kmh 29.95 in1014.2 mb - 0.00 in0.0 mm 0.00 in0.0 mm
07:10 AM 81.3°F27.4°C 63.1°F17.3°C 54% 4.6 mph SW7.4 kmh SW 8.1 mph13.0 kmh 29.95 in1014.2 mb - 0.00 in0.0 mm 0.00 in0.0 mm
07:00 AM 81.1°F27.3°C 63.4°F17.4°C 55% 2.3 mph SE3.7 kmh SE 4.6 mph7.4 kmh 29.95 in1014.2 mb - 0.00 in0.0 mm 0.00 in0.0 mm
06:50 AM 81.0°F27.2°C 63.3°F17.4°C 55% 2.3 mph NNE3.7 kmh NNE 8.1 mph13.0 kmh 29.94 in1013.9 mb - 0.00 in0.0 mm 0.00 in0.0 mm
06:40 AM 80.6°F27.0°C 62.9°F17.2°C 55% 4.6 mph N7.4 kmh N 12.7 mph20.4 kmh 29.94 in1013.9 mb - 0.00 in0.0 mm 0.00 in0.0 mm
06:30 AM 79.9°F26.6°C 62.3°F16.8°C 55% 3.5 mph WNW5.6 kmh WNW 10.4 mph16.7 kmh 29.94 in1013.9 mb - 0.00 in0.0 mm 0.00 in0.0 mm
06:20 AM 79.5°F26.4°C 64.4°F18.0°C 60% 1.2 mph WSW1.9 kmh WSW 4.6 mph7.4 kmh 29.94 in1013.9 mb - 0.00 in0.0 mm 0.00 in0.0 mm
06:10 AM 79.5°F26.4°C 64.9°F18.3°C 61% Calm Calm 2.3 mph3.7 kmh 29.94 in1013.9 mb - 0.00 in0.0 mm 0.00 in0.0 mm
06:00 AM 79.7°F26.5°C 65.5°F18.6°C 62% 1.2 mph WNW1.9 kmh WNW 4.6 mph7.4 kmh 29.93 in1013.5 mb - 0.00 in0.0 mm 0.00 in0.0 mm
05:50 AM 79.9°F26.6°C 64.8°F18.2°C 60% 1.2 mph NW1.9 kmh NW 4.6 mph7.4 kmh 29.93 in1013.5 mb - 0.00 in0.0 mm 0.00 in0.0 mm
05:40 AM 79.9°F26.6°C 63.8°F17.7°C 58% 1.2 mph N1.9 kmh N 8.1 mph13.0 kmh 29.93 in1013.5 mb - 0.00 in0.0 mm 0.00 in0.0 mm
05:30 AM 79.9°F26.6°C 64.3°F17.9°C 59% 2.3 mph WSW3.7 kmh WSW 8.1 mph13.0 kmh 29.92 in1013.2 mb - 0.00 in0.0 mm 0.00 in0.0 mm
05:20 AM 79.9°F26.6°C 65.2°F18.4°C 61% 1.2 mph W1.9 kmh W 2.3 mph3.7 kmh 29.92 in1013.2 mb - 0.00 in0.0 mm 0.00 in0.0 mm
05:10 AM 79.9°F26.6°C 64.3°F17.9°C 59% 1.2 mph N1.9 kmh N 4.6 mph7.4 kmh 29.92 in1013.2 mb - 0.00 in0.0 mm 0.00 in0.0 mm
05:00 AM 80.1°F26.7°C 64.0°F17.8°C 58% Calm Calm 2.3 mph3.7 kmh 29.92 in1013.2 mb - 0.00 in0.0 mm 0.00 in0.0 mm
04:50 AM 80.2°F26.8°C 64.1°F17.8°C 58% 1.2 mph SE1.9 kmh SE 2.3 mph3.7 kmh 29.91 in1012.9 mb - 0.00 in0.0 mm 0.00 in0.0 mm
04:40 AM 80.4°F26.9°C 63.8°F17.7°C 57% 2.3 mph NW3.7 kmh NW 4.6 mph7.4 kmh 29.92 in1013.2 mb - 0.00 in0.0 mm 0.00 in0.0 mm
04:30 AM 80.6°F27.0°C 62.4°F16.9°C 54% 3.5 mph N5.6 kmh N 8.1 mph13.0 kmh 29.91 in1012.9 mb - 0.00 in0.0 mm 0.00 in0.0 mm
04:20 AM 80.6°F27.0°C 63.5°F17.5°C 56% 3.5 mph N5.6 kmh N 8.1 mph13.0 kmh 29.91 in1012.9 mb - 0.00 in0.0 mm 0.00 in0.0 mm
04:10 AM 80.6°F27.0°C 61.9°F16.6°C 53% 2.3 mph ENE3.7 kmh ENE 4.6 mph7.4 kmh 29.90 in1012.5 mb - 0.00 in0.0 mm 0.00 in0.0 mm
04:00 AM 80.6°F27.0°C 62.4°F16.9°C 54% 1.2 mph WNW1.9 kmh WNW 4.6 mph7.4 kmh 29.90 in1012.5 mb - 0.00 in0.0 mm 0.00 in0.0 mm
03:50 AM 80.6°F27.0°C 62.9°F17.2°C 55% 1.2 mph W1.9 kmh W 4.6 mph7.4 kmh 29.91 in1012.9 mb - 0.00 in0.0 mm 0.00 in0.0 mm
03:40 AM 80.4°F26.9°C 60.6°F15.9°C 51% 2.3 mph NNE3.7 kmh NNE 8.1 mph13.0 kmh 29.91 in1012.9 mb - 0.00 in0.0 mm 0.00 in0.0 mm
03:30 AM 80.2°F26.8°C 62.6°F17.0°C 55% 1.2 mph NNW1.9 kmh NNW 2.3 mph3.7 kmh 29.91 in1012.9 mb - 0.00 in0.0 mm 0.00 in0.0 mm
03:20 AM 80.4°F26.9°C 60.6°F15.9°C 51% 3.5 mph N5.6 kmh N 4.6 mph7.4 kmh 29.90 in1012.5 mb - 0.00 in0.0 mm 0.00 in0.0 mm
03:10 AM 80.5°F26.9°C 62.9°F17.2°C 55% Calm Calm 2.3 mph3.7 kmh 29.90 in1012.5 mb - 0.00 in0.0 mm 0.00 in0.0 mm
03:00 AM 80.8°F27.1°C 63.1°F17.3°C 55% 3.5 mph NW5.6 kmh NW 4.6 mph7.4 kmh 29.90 in1012.5 mb - 0.00 in0.0 mm 0.00 in0.0 mm
02:50 AM 81.1°F27.3°C 62.9°F17.2°C 54% 3.5 mph N5.6 kmh N 4.6 mph7.4 kmh 29.90 in1012.5 mb - 0.00 in0.0 mm 0.00 in0.0 mm
02:40 AM 81.3°F27.4°C 63.1°F17.3°C 54% 1.2 mph N1.9 kmh N 4.6 mph7.4 kmh 29.90 in1012.5 mb - 0.00 in0.0 mm 0.00 in0.0 mm
02:30 AM 81.3°F27.4°C 61.4°F16.3°C 51% Calm Calm 2.3 mph3.7 kmh 29.90 in1012.5 mb - 0.00 in0.0 mm 0.00 in0.0 mm
02:20 AM 81.1°F27.3°C 60.1°F15.6°C 49% 2.3 mph WNW3.7 kmh WNW 4.6 mph7.4 kmh 29.90 in1012.5 mb - 0.00 in0.0 mm 0.00 in0.0 mm
02:10 AM 81.0°F27.2°C 60.0°F15.6°C 49% 4.6 mph WNW7.4 kmh WNW 8.1 mph13.0 kmh 29.90 in1012.5 mb - 0.00 in0.0 mm 0.00 in0.0 mm
02:00 AM 81.0°F27.2°C 61.2°F16.2°C 51% 6.9 mph NW11.1 kmh NW 10.4 mph16.7 kmh 29.91 in1012.9 mb - 0.00 in0.0 mm 0.00 in0.0 mm
01:50 AM 81.5°F27.5°C 63.3°F17.4°C 54% 2.3 mph NNW3.7 kmh NNW 4.6 mph7.4 kmh 29.91 in1012.9 mb - 0.00 in0.0 mm 0.00 in0.0 mm
01:40 AM 81.9°F27.7°C 62.5°F16.9°C 52% 4.6 mph NNW7.4 kmh NNW 8.1 mph13.0 kmh 29.90 in1012.5 mb - 0.00 in0.0 mm 0.00 in0.0 mm
01:30 AM 81.9°F27.7°C 58.5°F14.7°C 45% 5.8 mph N9.3 kmh N 8.1 mph13.0 kmh 29.91 in1012.9 mb - 0.00 in0.0 mm 0.00 in0.0 mm
01:20 AM 81.7°F27.6°C 57.0°F13.9°C 43% 3.5 mph NNW5.6 kmh NNW 4.6 mph7.4 kmh 29.91 in1012.9 mb - 0.00 in0.0 mm 0.00 in0.0 mm
01:10 AM 81.7°F27.6°C 60.1°F15.6°C 48% Calm Calm 2.3 mph3.7 kmh 29.91 in1012.9 mb - 0.00 in0.0 mm 0.00 in0.0 mm
01:00 AM 81.9°F27.7°C 63.1°F17.3°C 53% 3.5 mph W5.6 kmh W 8.1 mph13.0 kmh 29.90 in1012.5 mb - 0.00 in0.0 mm 0.00 in0.0 mm
12:50 AM 81.9°F27.7°C 60.9°F16.1°C 49% 5.8 mph N9.3 kmh N 8.1 mph13.0 kmh 29.90 in1012.5 mb - 0.00 in0.0 mm 0.00 in0.0 mm
12:40 AM 81.8°F27.7°C 60.2°F15.7°C 48% 6.9 mph N11.1 kmh N 10.4 mph16.7 kmh 29.90 in1012.5 mb - 0.00 in0.0 mm 0.00 in0.0 mm
12:30 AM 81.7°F27.6°C 61.2°F16.2°C 50% 4.6 mph N7.4 kmh N 8.1 mph13.0 kmh 29.91 in1012.9 mb - 0.00 in0.0 mm 0.00 in0.0 mm
12:20 AM 81.1°F27.3°C 60.1°F15.6°C 49% 3.5 mph NNW5.6 kmh NNW 8.1 mph13.0 kmh 29.91 in1012.9 mb - 0.00 in0.0 mm 0.00 in0.0 mm
12:10 AM 81.1°F27.3°C 65.9°F18.8°C 60% Calm Calm 2.3 mph3.7 kmh 29.91 in1012.9 mb - 0.00 in0.0 mm 0.00 in0.0 mm
12:00 AM 81.1°F27.3°C 63.9°F17.7°C 56% 1.2 mph NNE1.9 kmh NNE 2.3 mph3.7 kmh 29.91 in1012.9 mb - 0.00 in0.0 mm 0.00 in0.0 mm